Time;durP1;ratioP1;P1;durP2;ratioP2;P2;SDS_P1;SDS_P2;PMS_P1;PMS_P2;Temp;Humidity;BMP_temperature;BMP_pressure;BME280_temperature;BME280_humidity;BME280_pressure;Samples;Min_cycle;Max_cycle;Signal;HPM_P1;HPM_P2
2021/07/22 00:01:08;;;;;;;5.57;2.70;;;;;;;29.05;46.64;100935.55;128406;1087;64764;-86
2021/07/22 00:03:55;;;;;;;4.13;2.50;;;;;;;29.06;46.64;100941.86;128359;1084;64131;-85
2021/07/22 00:06:21;;;;;;;3.97;2.60;;;;;;;29.05;47.04;100935.55;128363;1084;64179;-85
2021/07/22 00:08:51;;;;;;;3.90;2.80;;;;;;;29.06;46.85;100948.14;128326;1084;64208;-85
2021/07/22 00:11:20;;;;;;;4.40;2.80;;;;;;;29.05;46.87;100937.43;128382;1084;64300;-85
2021/07/22 00:13:46;;;;;;;3.83;2.50;;;;;;;29.05;46.65;100940.98;128388;1084;64198;-84
2021/07/22 00:16:17;;;;;;;4.67;2.60;;;;;;;29.04;46.71;100944.74;128371;1084;64099;-84
2021/07/22 00:18:43;;;;;;;4.10;2.63;;;;;;;29.04;46.72;100938.44;128362;1084;64275;-84
2021/07/22 00:21:11;;;;;;;4.20;2.40;;;;;;;29.05;46.55;100937.43;128357;1084;64131;-85
2021/07/22 00:23:38;;;;;;;3.93;2.73;;;;;;;29.04;46.74;100939.31;128372;1084;64102;-85
2021/07/22 00:26:05;;;;;;;4.43;2.47;;;;;;;29.04;46.46;100936.59;128394;1084;64122;-85
2021/07/22 00:28:51;;;;;;;4.90;2.60;;;;;;;29.03;46.65;100926.72;128359;1084;64405;-85
2021/07/22 00:31:18;;;;;;;3.67;2.20;;;;;;;29.03;46.56;100934.88;128392;1084;64131;-85
2021/07/22 00:33:44;;;;;;;4.70;2.90;;;;;;;29.04;46.60;100930.28;128387;1084;64147;-85
2021/07/22 00:36:13;;;;;;;4.37;2.73;;;;;;;29.02;46.82;100930.45;128381;1084;64131;-84
2021/07/22 00:38:39;;;;;;;3.40;2.40;;;;;;;29.03;46.32;100936.75;128345;1084;64211;-85
2021/07/22 00:41:13;;;;;;;4.37;2.60;;;;;;;29.02;47.17;100933.16;128366;1084;64754;-85
2021/07/22 00:43:40;;;;;;;4.17;2.57;;;;;;;29.02;46.91;100941.31;128405;1084;64121;-85
2021/07/22 00:46:10;;;;;;;3.43;2.47;;;;;;;29.02;47.05;100938.59;128377;1084;64128;-84
2021/07/22 00:48:47;;;;;;;4.57;2.60;;;;;;;29.02;46.73;100938.59;128337;1084;64141;-85
2021/07/22 00:51:14;;;;;;;3.83;2.60;;;;;;;29.01;46.58;100938.77;128377;1084;64205;-85
2021/07/22 00:53:41;;;;;;;4.00;2.50;;;;;;;29.02;46.46;100935.05;128390;1084;64279;-85
2021/07/22 00:56:11;;;;;;;3.50;2.40;;;;;;;29.02;46.72;100940.48;128356;1084;64201;-85
2021/07/22 00:58:38;;;;;;;5.50;2.40;;;;;;;29.01;46.79;100942.32;128345;1084;64141;-85
2021/07/22 01:01:13;;;;;;;3.73;2.57;;;;;;;29.01;46.93;100944.20;128369;1084;64108;-85
2021/07/22 01:03:39;;;;;;;5.77;2.50;;;;;;;29.01;46.81;100949.63;128390;1084;64367;-85
2021/07/22 01:06:12;;;;;;;4.27;2.50;;;;;;;29.01;46.50;100950.47;128372;1084;64048;-85
2021/07/22 01:08:43;;;;;;;3.70;2.37;;;;;;;29.01;46.79;100944.20;128365;1084;64168;-85
2021/07/22 01:11:15;;;;;;;3.67;2.27;;;;;;;29.01;47.01;100952.34;128358;1084;64178;-85
2021/07/22 01:13:57;;;;;;;;;;;;;;;;;;;;;
2021/07/22 01:16:30;;;;;;;3.80;2.45;;;;;;;28.99;46.94;100952.52;128377;1084;64108;-85
2021/07/22 01:18:59;;;;;;;4.23;2.50;;;;;;;29.01;46.88;100946.91;128337;1084;64106;-85
2021/07/22 01:21:26;;;;;;;3.73;2.23;;;;;;;29.00;46.79;100945.20;128378;1084;64630;-85
2021/07/22 01:23:52;;;;;;;4.27;2.60;;;;;;;29.00;46.66;100947.92;128412;1084;64173;-84
2021/07/22 01:26:21;;;;;;;3.40;2.35;;;;;;;29.00;46.83;100939.77;128365;1084;64102;-85
2021/07/22 01:29:00;;;;;;;3.70;2.50;;;;;;;29.00;46.58;100945.20;128345;1084;64167;-85
2021/07/22 01:31:26;;;;;;;;;;;;;;;28.98;46.57;100939.09;128426;1084;62196;-84
2021/07/22 01:34:01;;;;;;;3.43;2.50;;;;;;;28.98;46.90;100948.08;128408;1084;64125;-85
2021/07/22 01:36:28;;;;;;;4.07;2.60;;;;;;;28.98;46.59;100941.81;128365;1084;64140;-84
2021/07/22 01:38:54;;;;;;;3.83;2.43;;;;;;;28.98;46.97;100944.52;128384;1084;64182;-85
2021/07/22 01:41:30;;;;;;;3.93;2.40;;;;;;;28.98;46.83;100944.52;128378;1084;64108;-85
2021/07/22 01:43:56;;;;;;;4.37;2.60;;;;;;;28.98;46.54;100949.96;128385;1082;64099;-84
2021/07/22 01:46:25;;;;;;;4.27;2.50;;;;;;;28.98;47.04;100949.96;128359;1084;64144;-85
2021/07/22 01:49:04;;;;;;;;;;;;;;;;;;;;;
2021/07/22 01:51:40;;;;;;;3.77;2.73;;;;;;;28.97;46.90;100943.66;128052;1084;64141;-85
2021/07/22 01:54:15;;;;;;;3.97;2.50;;;;;;;28.97;46.94;100938.22;128381;1084;64137;-85
2021/07/22 01:56:41;;;;;;;3.40;2.30;;;;;;;28.97;46.83;100935.50;128392;1084;64278;-84
2021/07/22 01:59:26;;;;;;;3.50;2.50;;;;;;;28.97;46.85;100942.81;128407;1084;64131;-84
2021/07/22 02:02:01;;;;;;;4.40;2.60;;;;;;;28.97;46.83;100932.78;128373;1084;64099;-84
2021/07/22 02:04:28;;;;;;;3.37;2.40;;;;;;;28.97;46.68;100935.50;128397;1084;64125;-86
2021/07/22 02:06:54;;;;;;;3.70;2.40;;;;;;;28.97;46.64;100935.50;128374;1084;64022;-85
2021/07/22 02:09:21;;;;;;;3.67;2.40;;;;;;;28.96;46.59;100936.50;128364;1084;62915;-84
2021/07/22 02:11:47;;;;;;;4.20;2.40;;;;;;;28.97;47.21;100942.81;128346;1084;64278;-86
2021/07/22 02:14:22;;;;;;;3.87;2.33;;;;;;;28.97;46.77;100938.22;128366;1084;64156;-84
2021/07/22 02:16:49;;;;;;;3.57;2.47;;;;;;;28.96;46.93;100939.22;128387;1083;64182;-83
2021/07/22 02:19:15;;;;;;;3.40;2.23;;;;;;;28.98;46.79;100933.66;128343;1084;64390;-85
2021/07/22 02:21:53;;;;;;;3.17;2.20;;;;;;;28.96;46.53;100936.50;128378;1084;64176;-85
2021/07/22 02:24:19;;;;;;;3.63;2.40;;;;;;;28.96;46.78;100936.50;128393;1084;64141;-85
2021/07/22 02:26:46;;;;;;;4.67;2.60;;;;;;;28.97;47.03;100938.22;128421;1084;64205;-86
2021/07/22 02:29:31;;;;;;;3.97;2.40;;;;;;;28.97;46.72;100943.66;128365;1084;64748;-81
2021/07/22 02:32:02;;;;;;;3.93;2.50;;;;;;;28.96;46.48;100941.94;128370;1087;64144;-85
2021/07/22 02:34:29;;;;;;;4.90;2.43;;;;;;;28.96;46.61;100941.09;128395;1084;64249;-86
2021/07/22 02:36:55;;;;;;;3.93;2.47;;;;;;;28.96;46.63;100936.50;128388;1084;64088;-85
2021/07/22 02:39:22;;;;;;;3.20;2.20;;;;;;;28.96;46.67;100941.94;128316;1084;64331;-84
2021/07/22 02:41:48;;;;;;;4.43;2.50;;;;;;;28.94;46.85;100941.27;128376;1087;64208;-85
2021/07/22 02:44:14;;;;;;;3.30;2.20;;;;;;;28.96;46.64;100941.09;128384;1084;64143;-85
2021/07/22 02:46:40;;;;;;;3.93;2.30;;;;;;;28.95;46.86;100942.10;128363;1084;64140;-85
2021/07/22 02:49:16;;;;;;;3.07;2.27;;;;;;;28.95;46.86;100940.26;128355;1084;64140;-84
2021/07/22 02:51:45;;;;;;;3.93;2.33;;;;;;;28.95;46.91;100942.98;128359;1084;64310;-85
2021/07/22 02:54:14;;;;;;;3.93;2.43;;;;;;;28.95;46.79;100940.26;128386;1084;64722;-84
2021/07/22 02:56:42;;;;;;;3.90;2.27;;;;;;;28.95;47.06;100947.54;128369;1084;64147;-85
2021/07/22 02:59:08;;;;;;;5.37;2.90;;;;;;;28.95;46.89;100948.41;128359;1084;64230;-85
2021/07/22 03:01:38;;;;;;;3.77;2.50;;;;;;;28.95;46.93;100945.69;128366;1084;64142;-84
2021/07/22 03:04:07;;;;;;;3.70;2.47;;;;;;;28.95;47.05;100944.82;128398;1084;64134;-85
2021/07/22 03:06:51;;;;;;;3.53;2.40;;;;;;;28.95;46.63;100952.97;128358;1084;64152;-84
2021/07/22 03:09:27;;;;;;;3.80;2.27;;;;;;;28.94;47.09;100952.13;128358;1084;64131;-84
2021/07/22 03:11:55;;;;;;;2.90;2.10;;;;;;;28.94;46.86;100957.56;128349;1084;64093;-84
2021/07/22 03:14:50;;;;;;;3.80;2.40;;;;;;;28.93;46.86;100951.30;128357;1082;64638;-86
2021/07/22 03:17:22;;;;;;;3.60;2.23;;;;;;;28.93;46.88;100954.01;128378;1083;64137;-85
2021/07/22 03:19:51;;;;;;;3.37;2.30;;;;;;;28.93;46.84;100948.58;128332;1084;64182;-85
2021/07/22 03:22:18;;;;;;;4.03;2.50;;;;;;;28.94;47.13;100954.84;128367;1084;64135;-85
2021/07/22 03:24:46;;;;;;;3.77;2.33;;;;;;;28.95;46.93;100966.56;128407;1084;64140;-85
2021/07/22 03:27:13;;;;;;;3.50;2.40;;;;;;;28.94;46.76;100957.56;128344;1087;64153;-85
2021/07/22 03:29:41;;;;;;;3.90;2.27;;;;;;;28.95;46.85;100963.84;128356;1084;64222;-85
2021/07/22 03:32:07;;;;;;;3.80;2.40;;;;;;;28.95;46.44;100972.00;128359;1084;64142;-85
2021/07/22 03:34:42;;;;;;;4.07;2.60;;;;;;;28.95;46.86;100969.28;128403;1084;63945;-85
2021/07/22 03:37:09;;;;;;;5.20;2.43;;;;;;;28.95;47.03;100969.28;128412;1084;64307;-85
2021/07/22 03:39:35;;;;;;;3.47;2.30;;;;;;;28.95;46.90;100966.56;128444;1084;64147;-85
2021/07/22 03:42:02;;;;;;;3.80;2.40;;;;;;;28.95;47.25;100967.43;128474;1084;64236;-85
2021/07/22 03:44:44;;;;;;;4.27;2.47;;;;;;;28.95;46.80;100974.71;128474;1084;64141;-85
2021/07/22 03:47:11;;;;;;;3.43;2.27;;;;;;;28.95;46.78;100970.15;128445;1084;64217;-85
2021/07/22 03:49:37;;;;;;;3.77;2.43;;;;;;;28.95;46.96;100967.43;128338;1084;64285;-85
2021/07/22 03:52:08;;;;;;;3.10;2.10;;;;;;;28.95;46.70;100972.87;128402;1084;64153;-85
2021/07/22 03:54:34;;;;;;;4.30;2.20;;;;;;;28.97;46.94;100972.70;128255;1081;64198;-85
2021/07/22 03:57:06;;;;;;;3.87;2.43;;;;;;;28.96;46.93;100973.70;128266;1084;64786;-84
2021/07/22 03:59:34;;;;;;;3.95;2.30;;;;;;;28.96;46.83;100971.83;128331;1084;64173;-85
2021/07/22 04:02:03;;;;;;;4.80;2.37;;;;;;;28.96;46.89;100973.70;128379;1087;64156;-84
2021/07/22 04:04:30;;;;;;;4.13;2.40;;;;;;;28.96;46.88;100973.70;128359;1087;64155;-85
2021/07/22 04:06:56;;;;;;;3.05;2.00;;;;;;;28.96;46.96;100973.70;128372;1084;64243;-85
2021/07/22 04:09:22;;;;;;;4.07;2.30;;;;;;;28.95;46.78;100970.15;128344;1084;64201;-85
2021/07/22 04:11:49;;;;;;;3.77;2.60;;;;;;;28.95;46.76;100969.28;128382;1084;64252;-84
2021/07/22 04:14:16;;;;;;;3.73;2.23;;;;;;;28.95;46.64;100969.28;128337;1084;64281;-84
2021/07/22 04:16:46;;;;;;;4.83;2.40;;;;;;;28.93;46.96;100970.31;128346;1084;64098;-86
2021/07/22 04:19:12;;;;;;;3.60;2.50;;;;;;;28.93;46.67;100964.00;128344;1084;64603;-84
2021/07/22 04:21:43;;;;;;;4.33;2.60;;;;;;;28.93;46.94;100969.44;128365;1084;64137;-84
2021/07/22 04:24:10;;;;;;;3.97;2.60;;;;;;;28.92;46.99;100968.59;128301;1084;64259;-84
2021/07/22 04:26:39;;;;;;;4.60;2.60;;;;;;;28.92;46.51;100971.31;128345;1084;64674;-84
2021/07/22 04:29:19;;;;;;;;;;;;;;;;;;;;;
2021/07/22 04:31:46;;;;;;;3.10;2.20;;;;;;;28.91;46.85;100960.61;128376;1084;64748;-84
2021/07/22 04:34:14;;;;;;;4.83;2.57;;;;;;;28.90;46.82;100967.89;128380;1084;64134;-84
2021/07/22 04:36:43;;;;;;;4.03;2.50;;;;;;;28.90;46.46;100962.45;128350;1084;64355;-84
2021/07/22 04:39:12;;;;;;;4.83;2.60;;;;;;;28.90;46.05;100965.17;128358;1084;64115;-84
2021/07/22 04:41:39;;;;;;;5.57;2.80;;;;;;;28.89;46.33;100970.77;128348;1084;64146;-84
2021/07/22 04:44:05;;;;;;;5.33;2.60;;;;;;;28.89;45.95;100968.05;128377;1084;64400;-85
2021/07/22 04:46:39;;;;;;;3.67;2.50;;;;;;;28.88;45.64;100966.34;128358;1084;64137;-85
2021/07/22 04:49:06;;;;;;;5.13;2.50;;;;;;;28.87;45.88;100976.36;128365;1084;64206;-84
2021/07/22 04:51:34;;;;;;;5.17;2.47;;;;;;;28.87;45.48;100978.23;128371;1084;64156;-84
2021/07/22 04:54:00;;;;;;;5.90;2.70;;;;;;;28.86;45.64;100971.94;128392;1085;62171;-84
2021/07/22 04:56:26;;;;;;;4.70;2.50;;;;;;;28.86;45.32;100974.66;128335;1084;64632;-84
2021/07/22 04:58:54;;;;;;;4.50;2.63;;;;;;;28.86;44.93;100979.24;128331;1084;64099;-85
2021/07/22 05:01:20;;;;;;;4.73;2.90;;;;;;;28.85;45.13;100981.09;128329;1084;64134;-84
2021/07/22 05:03:47;;;;;;;5.10;2.53;;;;;;;28.84;44.84;100984.84;128384;1084;64166;-85
2021/07/22 05:06:14;;;;;;;4.17;2.57;;;;;;;28.85;44.63;100981.09;128317;1084;64134;-84
2021/07/22 05:08:40;;;;;;;4.97;2.63;;;;;;;28.84;45.10;100978.53;128354;1084;64138;-85
2021/07/22 05:11:08;;;;;;;4.53;2.60;;;;;;;28.83;44.54;100977.69;128364;1084;64125;-84
2021/07/22 05:13:39;;;;;;;4.70;2.60;;;;;;;28.83;44.50;100980.41;128365;1084;64237;-84
2021/07/22 05:16:07;;;;;;;6.97;3.00;;;;;;;28.83;44.45;100984.97;128366;1084;64016;-85
2021/07/22 05:18:34;;;;;;;5.23;2.73;;;;;;;28.83;43.84;100982.25;128392;1084;64100;-84
2021/07/22 05:21:05;;;;;;;5.10;2.50;;;;;;;28.81;44.13;100978.86;128354;1084;64096;-84
2021/07/22 05:23:32;;;;;;;5.07;2.63;;;;;;;28.81;43.59;100981.58;128389;1084;64722;-85
2021/07/22 05:26:05;;;;;;;4.97;2.83;;;;;;;28.81;43.78;100984.29;128358;1084;64127;-84
2021/07/22 05:28:32;;;;;;;4.77;2.90;;;;;;;28.80;43.55;100990.73;128357;1084;64192;-85
2021/07/22 05:30:59;;;;;;;4.63;2.70;;;;;;;28.80;43.49;100983.45;128330;1084;64102;-84
2021/07/22 05:33:25;;;;;;;7.40;2.75;;;;;;;28.79;43.56;100989.02;128369;1084;64278;-86
2021/07/22 05:35:52;;;;;;;6.57;3.10;;;;;;;28.79;43.25;100994.45;128368;1084;64137;-85
2021/07/22 05:38:18;;;;;;;8.30;2.85;;;;;;;28.78;43.07;100987.33;128397;1083;64211;-84
2021/07/22 05:40:52;;;;;;;5.10;2.73;;;;;;;28.76;43.15;100982.02;128374;1084;64323;-84
2021/07/22 05:43:26;;;;;;;7.33;3.20;;;;;;;28.75;42.75;100989.34;128360;1084;64203;-85
2021/07/22 05:45:53;;;;;;;4.60;2.67;;;;;;;28.75;42.63;100993.92;128356;1084;64038;-85
2021/07/22 05:48:25;;;;;;;6.60;2.73;;;;;;;28.74;42.20;100990.34;128327;1084;64134;-84
2021/07/22 05:50:57;;;;;;;5.83;2.80;;;;;;;28.74;42.43;100993.05;128300;1084;64285;-84
2021/07/22 05:53:24;;;;;;;5.20;2.80;;;;;;;28.73;42.48;100988.66;128358;1084;64165;-84
2021/07/22 05:55:50;;;;;;;5.10;2.70;;;;;;;28.73;41.94;100993.21;128344;1084;64138;-85
2021/07/22 05:58:26;;;;;;;5.00;2.90;;;;;;;28.74;42.11;100992.21;128336;1084;64331;-84
2021/07/22 06:00:53;;;;;;;5.57;2.70;;;;;;;28.71;41.67;100990.66;128363;1084;64139;-85
2021/07/22 06:03:19;;;;;;;5.23;3.00;;;;;;;28.71;41.80;100993.38;128346;1083;64216;-84
2021/07/22 06:05:51;;;;;;;6.90;3.23;;;;;;;28.71;41.42;100997.97;128272;1084;64112;-83
2021/07/22 06:08:17;;;;;;;4.70;3.03;;;;;;;28.71;41.78;101004.23;128232;1084;64261;-84
2021/07/22 06:10:47;;;;;;;5.93;2.77;;;;;;;28.70;41.62;101005.24;128295;1083;64824;-83
2021/07/22 06:13:15;;;;;;;6.90;2.87;;;;;;;28.69;41.38;101003.52;128320;1084;64125;-83
2021/07/22 06:15:42;;;;;;;7.60;3.30;;;;;;;28.69;41.19;100997.25;128285;1084;64092;-83
2021/07/22 06:18:08;;;;;;;4.27;2.50;;;;;;;28.68;41.17;100999.13;128307;1084;64239;-83
2021/07/22 06:20:36;;;;;;;4.33;2.77;;;;;;;28.68;41.03;100998.26;128294;1084;64184;-83
2021/07/22 06:23:02;;;;;;;6.40;3.03;;;;;;;28.68;40.74;100992.82;128333;1084;63945;-83
2021/07/22 06:25:30;;;;;;;6.20;2.73;;;;;;;28.67;40.58;100993.86;128294;1084;64090;-85
2021/07/22 06:27:57;;;;;;;6.03;3.20;;;;;;;28.67;40.79;100991.14;128271;1084;64298;-84
2021/07/22 06:30:24;;;;;;;4.60;2.90;;;;;;;28.67;40.85;101004.72;128293;1084;64258;-84
2021/07/22 06:33:00;;;;;;;7.10;3.10;;;;;;;28.66;40.70;101001.13;128303;1082;64282;-85
2021/07/22 06:35:27;;;;;;;6.60;2.87;;;;;;;28.65;40.67;100993.98;128326;1084;64141;-84
2021/07/22 06:37:56;;;;;;;5.07;3.10;;;;;;;28.65;40.51;100996.70;128316;1084;64259;-84
2021/07/22 06:40:22;;;;;;;7.83;3.23;;;;;;;28.65;40.56;101004.84;128286;1084;64232;-84
2021/07/22 06:42:48;;;;;;;5.50;3.10;;;;;;;28.65;40.29;101007.56;128304;1084;64281;-85
2021/07/22 06:45:16;;;;;;;5.73;2.93;;;;;;;28.64;40.31;101002.26;128267;1084;64231;-85
2021/07/22 06:47:45;;;;;;;5.93;2.90;;;;;;;28.64;40.34;101000.45;128205;1084;64112;-83
2021/07/22 06:50:13;;;;;;;7.43;3.60;;;;;;;28.63;39.92;101004.13;128187;1084;64193;-84
2021/07/22 06:52:39;;;;;;;5.70;3.00;;;;;;;28.63;40.01;101006.85;128257;1084;64156;-83
2021/07/22 06:55:07;;;;;;;5.83;3.00;;;;;;;28.63;39.97;101006.85;128171;1084;64131;-83
2021/07/22 06:57:34;;;;;;;5.20;3.00;;;;;;;28.62;39.63;101007.02;128249;1084;64208;-83
2021/07/22 07:00:00;;;;;;;9.43;2.73;;;;;;;28.61;39.97;101008.86;128212;1084;64192;-84
2021/07/22 07:02:28;;;;;;;6.30;3.00;;;;;;;28.60;39.54;101005.30;128121;1084;64232;-84
2021/07/22 07:04:57;;;;;;;5.93;3.10;;;;;;;28.61;39.26;101011.56;128255;1084;64233;-85
2021/07/22 07:07:26;;;;;;;4.73;2.80;;;;;;;28.60;39.28;101010.73;128258;1084;64166;-84
2021/07/22 07:09:53;;;;;;;7.03;3.00;;;;;;;28.60;39.29;101007.17;128268;1084;64224;-84
2021/07/22 07:12:20;;;;;;;7.03;3.30;;;;;;;28.59;39.26;101011.73;128210;1084;64088;-84
2021/07/22 07:14:47;;;;;;;6.70;3.40;;;;;;;28.58;39.03;101010.02;128234;1084;64138;-84
2021/07/22 07:17:14;;;;;;;6.10;3.17;;;;;;;28.58;39.02;101010.02;128308;1084;64195;-83
2021/07/22 07:19:40;;;;;;;7.83;3.17;;;;;;;28.58;38.87;101006.45;128334;1084;64355;-84
2021/07/22 07:22:06;;;;;;;5.93;3.10;;;;;;;28.57;38.88;101008.33;128324;1084;64188;-83
2021/07/22 07:24:33;;;;;;;7.27;2.93;;;;;;;28.57;38.79;101015.61;128343;1084;64912;-85
2021/07/22 07:26:59;;;;;;;9.87;3.30;;;;;;;28.57;38.78;101015.61;128331;1082;64131;-84
2021/07/22 07:29:26;;;;;;;6.13;3.17;;;;;;;28.56;38.62;101022.91;128321;1084;64288;-83
2021/07/22 07:31:57;;;;;;;7.50;3.10;;;;;;;28.56;38.33;101022.91;128317;1084;64136;-82
2021/07/22 07:34:27;;;;;;;6.37;3.23;;;;;;;28.56;38.48;101019.32;128301;1084;64080;-82
2021/07/22 07:36:54;;;;;;;7.73;3.20;;;;;;;28.56;38.49;101028.34;128356;1084;64218;-82
2021/07/22 07:39:21;;;;;;;5.57;3.17;;;;;;;28.55;38.13;101026.63;128352;1084;64288;-82
2021/07/22 07:41:48;;;;;;;6.67;3.50;;;;;;;28.55;37.94;101032.06;128222;1084;64138;-83
2021/07/22 07:44:14;;;;;;;5.97;3.10;;;;;;;28.54;38.21;101022.20;127939;1084;64139;-82
2021/07/22 07:46:40;;;;;;;5.83;2.73;;;;;;;28.55;38.08;101026.63;128356;1084;64392;-84
2021/07/22 07:49:08;;;;;;;8.13;3.17;;;;;;;28.54;38.13;101035.77;128342;1084;64275;-83
2021/07/22 07:51:37;;;;;;;5.60;2.80;;;;;;;28.55;38.24;101039.37;128368;1084;64219;-84
2021/07/22 07:54:19;;;;;;;5.18;3.10;;;;;;;28.55;38.00;101034.77;128353;1084;63960;-84
2021/07/22 07:56:45;;;;;;;5.57;3.00;;;;;;;28.54;37.89;101040.37;127972;1084;64248;-84
2021/07/22 07:59:16;;;;;;;7.27;3.30;;;;;;;28.55;38.24;101034.77;128299;1084;64088;-83
2021/07/22 08:02:08;;;;;;;10.07;3.30;;;;;;;28.55;38.24;101032.06;128248;1084;64221;-83
2021/07/22 08:04:36;;;;;;;5.70;3.00;;;;;;;28.55;37.78;101029.34;127863;1090;64144;-84
2021/07/22 08:07:05;;;;;;;7.37;3.20;;;;;;;28.56;38.09;101028.34;127840;1090;64435;-84
2021/07/22 08:09:31;;;;;;;8.23;3.67;;;;;;;28.56;37.99;101031.05;127840;1090;64257;-84
2021/07/22 08:12:01;;;;;;;7.03;3.20;;;;;;;28.58;37.99;101039.05;127878;1090;64266;-83
2021/07/22 08:14:36;;;;;;;6.77;3.17;;;;;;;28.58;37.98;101029.02;127880;1089;64291;-83
2021/07/22 08:17:04;;;;;;;6.53;3.20;;;;;;;28.58;38.12;101031.74;127880;1090;63214;-84
2021/07/22 08:19:30;;;;;;;7.40;3.30;;;;;;;28.59;38.19;101029.90;127908;1090;64140;-84
2021/07/22 08:21:56;;;;;;;7.27;3.03;;;;;;;28.59;37.94;101033.45;127909;1089;64137;-83
2021/07/22 08:24:23;;;;;;;5.60;2.70;;;;;;;28.60;37.57;101032.45;127811;1089;64219;-84
2021/07/22 08:26:53;;;;;;;4.37;3.17;;;;;;;28.61;37.83;101030.58;127869;1090;64263;-84
2021/07/22 08:29:19;;;;;;;5.03;3.07;;;;;;;28.62;37.76;101028.73;127866;1090;64173;-84
2021/07/22 08:31:47;;;;;;;5.17;3.00;;;;;;;28.62;37.89;101026.02;127936;1090;64240;-85
2021/07/22 08:34:22;;;;;;;5.00;2.80;;;;;;;28.63;38.17;101027.70;127874;1090;64169;-84
2021/07/22 08:36:49;;;;;;;6.73;3.10;;;;;;;28.63;37.77;101033.14;127851;1090;64241;-84
2021/07/22 08:39:25;;;;;;;6.27;2.93;;;;;;;28.64;37.65;101024.89;127863;1090;64406;-84
2021/07/22 08:41:51;;;;;;;4.80;3.05;;;;;;;28.64;37.87;101024.89;128050;1084;63955;-84
2021/07/22 08:44:17;;;;;;;4.83;2.87;;;;;;;28.64;37.52;101023.98;128349;1084;64128;-84
2021/07/22 08:46:45;;;;;;;5.40;2.70;;;;;;;28.65;37.80;101026.58;128312;1082;64447;-83
2021/07/22 08:49:12;;;;;;;6.90;3.40;;;;;;;28.66;37.81;101024.73;128307;1084;64131;-84
2021/07/22 08:51:40;;;;;;;5.93;3.03;;;;;;;28.65;37.66;101029.30;128371;1084;64104;-84
2021/07/22 08:54:16;;;;;;;4.43;2.80;;;;;;;28.66;37.56;101024.73;128258;1084;64163;-84
2021/07/22 08:56:42;;;;;;;7.67;2.93;;;;;;;28.66;37.62;101028.30;128187;1084;64597;-84
2021/07/22 08:59:09;;;;;;;5.37;2.67;;;;;;;28.68;37.76;101022.70;128221;1084;64115;-83
2021/07/22 09:01:36;;;;;;;5.63;3.20;;;;;;;28.68;37.64;101026.30;128268;1087;64166;-83
2021/07/22 09:04:02;;;;;;;4.67;2.70;;;;;;;28.69;37.56;101018.98;128274;1084;64285;-84
2021/07/22 09:06:29;;;;;;;6.03;3.00;;;;;;;28.70;37.49;101020.70;128191;1084;65342;-84
2021/07/22 09:08:58;;;;;;;5.60;3.00;;;;;;;28.70;37.86;101018.83;128275;1084;64139;-85
2021/07/22 09:11:24;;;;;;;6.23;2.90;;;;;;;28.72;37.54;101018.66;128342;1084;64588;-84
2021/07/22 09:14:08;;;;;;;5.57;2.77;;;;;;;28.72;37.25;101018.66;128320;1084;64157;-83
2021/07/22 09:16:38;;;;;;;6.33;2.90;;;;;;;28.72;37.23;101016.82;128309;1084;64006;-84
2021/07/22 09:19:08;;;;;;;5.13;2.77;;;;;;;28.72;37.32;101016.82;128314;1084;64147;-85
2021/07/22 09:21:35;;;;;;;4.40;2.70;;;;;;;28.72;37.63;101018.66;128337;1084;64140;-84
2021/07/22 09:24:07;;;;;;;4.53;2.70;;;;;;;28.73;37.58;101020.38;128333;1084;64114;-84
2021/07/22 09:26:35;;;;;;;4.87;2.77;;;;;;;28.73;37.60;101013.10;128358;1084;64124;-84
2021/07/22 09:29:10;;;;;;;5.80;2.78;;;;;;;28.73;37.53;101007.67;128302;1085;64291;-84
2021/07/22 09:32:05;;;;;;;4.67;2.97;;;;;;;28.74;37.25;101012.06;128351;1084;64025;-84
2021/07/22 09:34:33;;;;;;;3.97;2.80;;;;;;;28.74;37.24;101013.94;127789;1090;64304;-83
2021/07/22 09:37:07;;;;;;;6.27;2.90;;;;;;;28.75;37.30;101002.08;127858;1088;64406;-84
2021/07/22 09:39:33;;;;;;;5.20;2.80;;;;;;;28.76;37.58;100998.33;127837;1089;64461;-85
2021/07/22 09:42:05;;;;;;;4.23;2.73;;;;;;;28.76;37.24;100998.33;127866;1088;64221;-85
2021/07/22 09:44:36;;;;;;;5.00;2.83;;;;;;;28.77;37.02;100997.32;127886;1090;64287;-85
2021/07/22 09:47:07;;;;;;;4.47;2.97;;;;;;;28.76;37.02;100999.20;127925;1090;64173;-85
2021/07/22 09:49:40;;;;;;;4.80;2.90;;;;;;;28.78;37.09;100990.05;127890;1090;64291;-84
2021/07/22 09:52:19;;;;;;;4.83;2.83;;;;;;;28.77;37.29;100991.89;127876;1089;64269;-85
2021/07/22 09:54:48;;;;;;;5.13;2.60;;;;;;;28.79;36.77;100989.02;127912;1089;65131;-85
2021/07/22 09:57:16;;;;;;;4.50;2.90;;;;;;;28.78;37.12;100990.89;127862;1090;64285;-84
2021/07/22 09:59:45;;;;;;;;;;;;;;;28.75;37.24;100992.05;127910;1088;64340;-84
2021/07/22 10:02:20;;;;;;;4.90;2.80;;;;;;;28.76;37.11;100992.89;127895;1090;64280;-84
2021/07/22 10:05:03;;;;;;;5.75;2.85;;;;;;;28.76;37.21;100992.89;127896;1090;64144;-85
2021/07/22 10:07:35;;;;;;;4.53;3.10;;;;;;;28.76;37.06;100996.48;127932;1088;64147;-84
2021/07/22 10:10:12;;;;;;;5.10;2.70;;;;;;;28.76;36.69;100991.05;127862;1090;64144;-82
2021/07/22 10:12:40;;;;;;;5.63;3.03;;;;;;;28.78;36.81;100998.20;128152;1084;64137;-83
2021/07/22 10:15:06;;;;;;;4.18;2.45;;;;;;;28.78;37.01;100980.02;128432;1084;64143;-83
2021/07/22 10:17:36;;;;;;;5.00;2.70;;;;;;;28.78;36.81;100977.30;128221;1084;64163;-82
2021/07/22 10:20:06;;;;;;;5.17;2.87;;;;;;;28.79;36.52;100983.58;128217;1084;64425;-82
2021/07/22 10:22:33;;;;;;;5.30;2.70;;;;;;;28.81;36.54;100981.58;128317;1084;64167;-83
2021/07/22 10:25:00;;;;;;;5.53;2.80;;;;;;;28.81;36.46;100978.86;128301;1086;64138;-83
2021/07/22 10:27:27;;;;;;;5.57;2.53;;;;;;;28.81;36.43;100976.98;128313;1084;64266;-84
2021/07/22 10:29:54;;;;;;;5.10;2.77;;;;;;;28.81;36.92;100993.28;128237;1084;64165;-83
2021/07/22 10:32:23;;;;;;;5.53;2.80;;;;;;;28.82;36.35;100981.41;128335;1084;64144;-84
2021/07/22 10:34:54;;;;;;;5.33;2.63;;;;;;;28.83;36.56;100982.25;128374;1083;64003;-83
2021/07/22 10:37:20;;;;;;;3.70;2.60;;;;;;;28.84;36.50;100981.25;128232;1084;64131;-83
2021/07/22 10:40:05;;;;;;;3.97;2.57;;;;;;;28.83;36.37;100966.83;128282;1084;64221;-83
2021/07/22 10:42:39;;;;;;;5.00;2.63;;;;;;;28.83;36.28;100958.67;128255;1084;64025;-83
2021/07/22 10:45:21;;;;;;;4.57;2.80;;;;;;;28.84;36.47;100967.66;128451;1084;64108;-83
2021/07/22 10:48:13;;;;;;;4.70;2.73;;;;;;;28.85;36.15;100961.23;128206;1084;64185;-83
2021/07/22 10:50:43;;;;;;;3.90;2.80;;;;;;;28.85;36.12;100962.07;128173;1084;64137;-83
2021/07/22 10:53:13;;;;;;;3.90;2.70;;;;;;;28.86;36.01;100971.09;128328;1083;64147;-85
2021/07/22 10:55:46;;;;;;;4.73;2.77;;;;;;;28.87;36.41;100964.66;128383;1084;64152;-84
2021/07/22 10:58:38;;;;;;;5.05;2.60;;;;;;;28.86;36.11;100961.06;128322;1082;64172;-84
2021/07/22 11:01:06;;;;;;;3.77;2.43;;;;;;;28.86;36.07;100949.36;128357;1084;64779;-85
2021/07/22 11:03:35;;;;;;;5.08;2.73;;;;;;;28.87;36.33;100956.50;128357;1084;64230;-82
2021/07/22 11:06:11;;;;;;;4.23;2.60;;;;;;;28.87;36.08;100951.91;128347;1084;64102;-84
2021/07/22 11:08:39;;;;;;;4.90;2.83;;;;;;;28.87;36.15;100951.91;128334;1084;64297;-85
2021/07/22 11:11:13;;;;;;;3.87;2.70;;;;;;;28.87;36.33;100951.91;128380;1087;64294;-85
2021/07/22 11:13:45;;;;;;;5.07;2.87;;;;;;;28.88;36.33;100952.75;128426;1082;64198;-85
2021/07/22 11:16:28;;;;;;;4.80;3.00;;;;;;;28.87;36.21;100949.19;128373;1082;64135;-85
2021/07/22 11:19:04;;;;;;;4.43;3.00;;;;;;;28.86;36.06;100947.48;128363;1084;64185;-84
2021/07/22 11:21:34;;;;;;;4.97;2.80;;;;;;;28.87;35.82;100949.19;128354;1084;64257;-85
2021/07/22 11:24:09;;;;;;;4.77;2.80;;;;;;;28.88;35.93;100934.61;128406;1084;64139;-85
2021/07/22 11:26:39;;;;;;;6.07;2.77;;;;;;;28.87;36.21;100932.89;128389;1084;64227;-85
2021/07/22 11:29:07;;;;;;;5.13;2.90;;;;;;;28.88;36.48;100926.45;128405;1084;64124;-85
2021/07/22 11:31:44;;;;;;;4.43;2.83;;;;;;;28.88;36.09;100918.30;128464;1084;64214;-84
2021/07/22 11:34:10;;;;;;;4.73;2.90;;;;;;;28.89;36.56;100927.30;128507;1084;64204;-84